createdAt,value
2023-03-13T00:00:34.439Z,0.00
2023-03-13T00:01:34.518Z,0.00
2023-03-13T00:02:34.677Z,0.00
2023-03-13T00:03:34.661Z,0.00
2023-03-13T00:04:34.815Z,0.00
2023-03-13T00:05:34.804Z,0.00
2023-03-13T00:06:34.892Z,0.00
2023-03-13T00:07:34.995Z,0.00
2023-03-13T00:08:35.083Z,0.00
2023-03-13T00:09:35.163Z,0.00
2023-03-13T00:10:35.245Z,0.00
2023-03-13T00:11:35.299Z,0.00
2023-03-13T00:12:35.423Z,0.00
2023-03-13T00:13:35.484Z,0.00
2023-03-13T00:14:35.564Z,0.00
2023-03-13T00:15:35.614Z,0.00
2023-03-13T00:16:35.826Z,0.00
2023-03-13T00:17:35.765Z,0.00
2023-03-13T00:18:35.846Z,0.00
2023-03-13T00:19:35.902Z,0.00
2023-03-13T00:20:36.011Z,0.00
2023-03-13T00:21:36.059Z,0.00
2023-03-13T00:22:36.153Z,0.00
2023-03-13T00:23:36.237Z,0.00
2023-03-13T00:24:36.302Z,0.00
2023-03-13T00:25:36.355Z,0.00
2023-03-13T00:26:36.463Z,0.00
2023-03-13T00:27:36.534Z,0.00
2023-03-13T00:28:36.602Z,0.00
2023-03-13T00:29:36.656Z,0.00
2023-03-13T00:30:36.768Z,0.00
2023-03-13T00:31:36.828Z,0.00
2023-03-13T00:32:36.958Z,0.00
2023-03-13T00:33:36.984Z,0.00
2023-03-13T00:34:37.039Z,0.00
2023-03-13T00:35:37.165Z,0.00
2023-03-13T00:36:37.174Z,0.00
2023-03-13T00:37:37.270Z,0.00
2023-03-13T00:38:37.320Z,0.00
2023-03-13T00:39:37.411Z,0.00
2023-03-13T00:40:37.464Z,0.00
2023-03-13T00:41:37.547Z,0.00
2023-03-13T00:42:37.619Z,0.00
2023-03-13T00:43:37.713Z,0.00
2023-03-13T00:44:37.798Z,0.00
2023-03-13T00:45:37.881Z,0.00
2023-03-13T00:46:38.106Z,0.00
2023-03-13T00:47:38.073Z,0.00
2023-03-13T00:48:38.128Z,0.00
2023-03-13T00:49:38.215Z,0.00
2023-03-13T00:50:38.296Z,0.00
2023-03-13T00:51:38.380Z,0.00
2023-03-13T00:52:38.546Z,0.00
2023-03-13T00:53:38.593Z,0.00
2023-03-13T00:54:38.618Z,0.00
2023-03-13T00:55:38.720Z,0.00
2023-03-13T00:56:38.772Z,0.00
2023-03-13T00:57:38.898Z,0.00
2023-03-13T00:58:38.937Z,0.00
2023-03-13T00:59:39.035Z,0.00
2023-03-13T01:00:39.110Z,0.00
2023-03-13T01:01:39.198Z,0.00
2023-03-13T01:02:39.357Z,0.00
2023-03-13T01:03:39.453Z,0.00
2023-03-13T01:04:39.436Z,0.00
2023-03-13T01:05:39.507Z,0.00
2023-03-13T01:06:39.555Z,0.00
2023-03-13T01:07:39.673Z,0.00
2023-03-13T01:08:39.725Z,0.00
2023-03-13T01:09:39.875Z,0.00
2023-03-13T01:10:39.895Z,0.00
2023-03-13T01:11:40.020Z,0.00
2023-03-13T01:12:40.078Z,0.00
2023-03-13T01:13:40.162Z,0.00
2023-03-13T01:14:40.261Z,0.00
2023-03-13T01:15:40.340Z,0.00
2023-03-13T01:16:40.410Z,0.00
2023-03-13T01:17:40.568Z,0.00
2023-03-13T01:18:40.618Z,0.00
2023-03-13T01:19:40.698Z,0.00
2023-03-13T01:20:40.785Z,0.00
2023-03-13T01:21:40.858Z,0.00
2023-03-13T01:22:40.942Z,0.00
2023-03-13T01:23:40.991Z,0.00
2023-03-13T01:24:41.057Z,0.00
2023-03-13T01:25:41.130Z,0.00
2023-03-13T01:26:41.202Z,0.00
2023-03-13T01:27:41.304Z,0.00
2023-03-13T01:28:41.334Z,0.00
2023-03-13T01:29:41.418Z,0.00
2023-03-13T01:30:41.553Z,0.00
2023-03-13T01:31:41.564Z,0.00
2023-03-13T01:32:41.705Z,0.00
2023-03-13T01:33:41.714Z,0.00
2023-03-13T01:34:41.768Z,0.00
2023-03-13T01:35:41.900Z,0.00
2023-03-13T01:36:41.972Z,0.00
2023-03-13T01:37:42.078Z,0.00
2023-03-13T01:38:42.136Z,0.00
2023-03-13T01:39:42.234Z,0.00
2023-03-13T01:40:42.297Z,0.00
2023-03-13T01:41:42.387Z,0.00
2023-03-13T01:42:42.461Z,0.00
2023-03-13T01:43:42.541Z,0.00
2023-03-13T01:44:42.605Z,0.00
2023-03-13T01:45:42.702Z,0.00
2023-03-13T01:46:42.809Z,0.00
2023-03-13T01:47:42.890Z,0.00
2023-03-13T01:48:42.949Z,0.00
2023-03-13T01:49:43.022Z,0.00
2023-03-13T01:50:43.077Z,0.00
2023-03-13T01:51:43.169Z,0.00
2023-03-13T01:52:43.243Z,0.00
2023-03-13T01:53:43.302Z,0.00
2023-03-13T01:54:43.362Z,0.00
2023-03-13T01:55:43.426Z,0.00
2023-03-13T01:56:43.513Z,0.00
2023-03-13T01:57:43.635Z,0.00
2023-03-13T01:58:43.692Z,0.00
2023-03-13T01:59:43.799Z,0.00
2023-03-13T02:00:43.854Z,0.00
2023-03-13T02:01:43.999Z,0.00
2023-03-13T02:02:44.127Z,0.00
2023-03-13T02:03:44.138Z,0.00
2023-03-13T02:04:44.213Z,0.00
2023-03-13T02:05:44.292Z,0.00
2023-03-13T02:06:44.376Z,0.00
2023-03-13T02:07:44.478Z,0.00
2023-03-13T02:08:44.570Z,0.00
2023-03-13T02:09:44.622Z,0.00
2023-03-13T02:10:44.721Z,0.00
2023-03-13T02:11:44.804Z,0.00
2023-03-13T02:12:44.903Z,0.00
2023-03-13T02:13:44.959Z,0.00
2023-03-13T02:14:45.049Z,0.00
2023-03-13T02:15:45.227Z,0.00
2023-03-13T02:16:45.202Z,0.00
2023-03-13T02:17:45.328Z,0.00
2023-03-13T02:18:45.353Z,0.00
2023-03-13T02:19:45.473Z,0.00
2023-03-13T02:20:45.516Z,0.00
2023-03-13T02:21:45.609Z,0.00
2023-03-13T02:22:45.692Z,0.00
2023-03-13T02:23:45.746Z,0.00
2023-03-13T02:24:45.814Z,0.00
2023-03-13T02:25:45.916Z,0.00
2023-03-13T02:26:45.977Z,0.00
2023-03-13T02:27:46.101Z,0.00
2023-03-13T02:28:46.176Z,0.00
2023-03-13T02:29:46.253Z,0.00
2023-03-13T02:30:46.341Z,0.00
2023-03-13T02:31:46.453Z,0.00
2023-03-13T02:32:46.537Z,0.00
2023-03-13T02:33:46.575Z,0.00
2023-03-13T02:34:46.653Z,0.00
2023-03-13T02:35:46.858Z,0.00
2023-03-13T02:36:46.836Z,0.00
2023-03-13T02:37:46.923Z,0.00
2023-03-13T02:38:46.969Z,0.00
2023-03-13T02:39:47.076Z,0.00
2023-03-13T02:40:47.135Z,0.00
2023-03-13T02:41:47.222Z,0.00
2023-03-13T02:42:47.326Z,0.00
2023-03-13T02:43:47.387Z,0.00
2023-03-13T02:44:47.457Z,0.00
2023-03-13T02:45:47.559Z,0.00
2023-03-13T02:46:47.802Z,0.00
2023-03-13T02:47:47.748Z,0.00
2023-03-13T02:48:47.804Z,0.00
2023-03-13T02:49:47.911Z,0.00
2023-03-13T02:50:47.997Z,0.00
2023-03-13T02:51:48.084Z,0.00
2023-03-13T02:52:48.181Z,0.00
2023-03-13T02:53:48.228Z,0.00
2023-03-13T02:54:48.292Z,0.00
2023-03-13T02:55:48.398Z,0.00
2023-03-13T02:56:48.470Z,0.00
2023-03-13T02:57:48.581Z,0.00
2023-03-13T02:58:50.277Z,0.00
2023-03-13T02:59:48.746Z,0.00
2023-03-13T03:00:48.876Z,0.00
2023-03-13T03:01:48.916Z,0.00
2023-03-13T03:02:49.007Z,0.00
2023-03-13T03:03:49.111Z,0.00
2023-03-13T03:04:49.114Z,0.00
2023-03-13T03:05:49.202Z,0.00
2023-03-13T03:06:49.251Z,0.00
2023-03-13T03:07:49.346Z,0.00
2023-03-13T03:08:49.408Z,0.00
2023-03-13T03:09:49.487Z,0.00
2023-03-13T03:10:49.567Z,0.00
2023-03-13T03:11:49.644Z,0.00
2023-03-13T03:12:49.744Z,0.00
2023-03-13T03:13:49.841Z,0.00
2023-03-13T03:14:49.916Z,0.00
2023-03-13T03:15:50.014Z,0.00
2023-03-13T03:16:50.196Z,0.00
2023-03-13T03:17:50.598Z,0.00
2023-03-13T03:18:50.239Z,0.00
2023-03-13T03:19:50.314Z,0.00
2023-03-13T03:20:50.400Z,0.00
2023-03-13T03:21:50.476Z,0.00
2023-03-13T03:22:50.566Z,0.00
2023-03-13T03:23:50.693Z,0.00
2023-03-13T03:24:50.742Z,0.00
2023-03-13T03:25:50.819Z,0.00
2023-03-13T03:26:50.864Z,0.00
2023-03-13T03:27:50.959Z,0.00
2023-03-13T03:28:51.006Z,0.00
2023-03-13T03:29:51.090Z,0.00
2023-03-13T03:30:51.175Z,0.00
2023-03-13T03:31:51.345Z,0.00
2023-03-13T03:32:51.412Z,0.00
2023-03-13T03:33:51.427Z,0.00
2023-03-13T03:34:51.482Z,0.00
2023-03-13T03:35:51.646Z,0.00
2023-03-13T03:36:51.650Z,0.00
2023-03-13T03:37:51.726Z,0.00
2023-03-13T03:38:51.814Z,0.00
2023-03-13T03:39:51.881Z,0.00
2023-03-13T03:40:51.931Z,0.00
2023-03-13T03:41:52.029Z,0.00
2023-03-13T03:42:52.128Z,0.00
2023-03-13T03:43:52.201Z,0.00
2023-03-13T03:44:52.296Z,0.00
2023-03-13T03:45:52.425Z,0.00
2023-03-13T03:46:52.495Z,0.00
2023-03-13T03:47:52.556Z,0.00
2023-03-13T03:48:52.622Z,0.00
2023-03-13T03:49:52.688Z,0.00
2023-03-13T03:50:52.758Z,0.00
2023-03-13T03:51:52.852Z,0.00
2023-03-13T03:52:52.956Z,0.00
2023-03-13T03:53:53.021Z,0.00
2023-03-13T03:54:53.087Z,0.00
2023-03-13T03:55:53.168Z,0.00
2023-03-13T03:56:53.258Z,0.00
2023-03-13T03:57:53.346Z,0.00
2023-03-13T03:58:53.378Z,0.00
2023-03-13T03:59:53.471Z,0.00
2023-03-13T04:00:53.561Z,0.00
2023-03-13T04:01:53.679Z,0.00
2023-03-13T04:02:53.750Z,0.00
2023-03-13T04:03:53.806Z,0.00
2023-03-13T04:04:53.874Z,0.00
2023-03-13T04:05:53.986Z,0.00
2023-03-13T04:06:54.033Z,0.00
2023-03-13T04:07:54.144Z,0.00
2023-03-13T04:08:54.203Z,0.00
2023-03-13T04:09:54.251Z,0.00
2023-03-13T04:10:54.334Z,0.00
2023-03-13T04:11:54.425Z,0.00
2023-03-13T04:12:54.523Z,0.00
2023-03-13T04:13:54.579Z,0.00
2023-03-13T04:14:54.636Z,0.00
2023-03-13T04:15:54.710Z,0.00
2023-03-13T04:16:54.799Z,0.00
2023-03-13T04:17:54.872Z,0.00
2023-03-13T04:18:54.930Z,0.00
2023-03-13T04:19:55.040Z,0.00
2023-03-13T04:20:55.127Z,0.00
2023-03-13T04:21:55.214Z,0.00
2023-03-13T04:22:55.317Z,0.00
2023-03-13T04:23:55.398Z,0.00
2023-03-13T04:24:55.487Z,0.00
2023-03-13T04:25:55.594Z,0.00
2023-03-13T04:26:55.652Z,0.00
2023-03-13T04:27:55.765Z,0.00
2023-03-13T04:28:55.828Z,0.00
2023-03-13T04:29:55.908Z,0.00
2023-03-13T04:30:56.032Z,0.00
2023-03-13T04:31:56.087Z,0.00
2023-03-13T04:32:56.223Z,0.00
2023-03-13T04:33:56.263Z,0.00
2023-03-13T04:34:56.423Z,0.00
2023-03-13T04:35:56.417Z,0.00
2023-03-13T04:36:56.462Z,0.00
2023-03-13T04:37:56.549Z,0.00
2023-03-13T04:38:56.606Z,0.00
2023-03-13T04:39:56.700Z,0.00
2023-03-13T04:40:56.792Z,0.00
2023-03-13T04:41:56.864Z,0.00
2023-03-13T04:42:56.915Z,0.00
2023-03-13T04:43:56.999Z,0.00
2023-03-13T04:44:57.049Z,0.00
2023-03-13T04:45:57.180Z,0.00
2023-03-13T04:46:57.225Z,0.00
2023-03-13T04:47:57.297Z,0.00
2023-03-13T04:48:57.386Z,0.00
2023-03-13T04:49:57.447Z,0.00
2023-03-13T04:50:57.529Z,0.00
2023-03-13T04:51:57.586Z,0.00
2023-03-13T04:52:57.682Z,0.00
2023-03-13T04:53:57.737Z,0.00
2023-03-13T04:54:57.835Z,0.00
2023-03-13T04:55:57.924Z,0.00
2023-03-13T04:56:58.016Z,0.00
2023-03-13T04:57:58.130Z,0.00
2023-03-13T04:58:58.188Z,0.00
2023-03-13T04:59:58.242Z,0.00
2023-03-13T05:00:58.336Z,0.00
2023-03-13T05:01:58.469Z,0.00
2023-03-13T05:02:58.524Z,0.00
2023-03-13T05:03:58.570Z,0.00
2023-03-13T05:04:58.783Z,0.00
2023-03-13T05:05:58.731Z,0.00
2023-03-13T05:06:58.842Z,0.00
2023-03-13T05:07:58.934Z,0.00
2023-03-13T05:08:58.999Z,0.00
2023-03-13T05:09:59.056Z,0.00
2023-03-13T05:10:59.129Z,0.00
2023-03-13T05:11:59.202Z,0.00
2023-03-13T05:12:59.272Z,0.00
2023-03-13T05:13:59.342Z,0.00
2023-03-13T05:14:59.418Z,0.00
2023-03-13T05:15:59.551Z,0.00
2023-03-13T05:16:59.585Z,0.00
2023-03-13T05:17:59.727Z,0.00
2023-03-13T05:18:59.742Z,0.00
2023-03-13T05:19:59.794Z,0.00
2023-03-13T05:20:59.903Z,0.00
2023-03-13T05:21:59.955Z,0.00
2023-03-13T05:23:00.104Z,0.00
2023-03-13T05:24:00.136Z,0.00
2023-03-13T05:25:00.205Z,0.00
2023-03-13T05:26:00.285Z,0.00
2023-03-13T05:27:00.359Z,0.00
2023-03-13T05:28:00.493Z,0.00
2023-03-13T05:29:00.522Z,0.00
2023-03-13T05:30:00.601Z,0.00
2023-03-13T05:31:00.788Z,0.00
2023-03-13T05:32:00.773Z,0.00
2023-03-13T05:33:01.019Z,0.00
2023-03-13T05:34:00.939Z,0.00
2023-03-13T05:35:01.036Z,0.00
2023-03-13T05:36:01.182Z,0.00
2023-03-13T05:37:01.171Z,0.00
2023-03-13T05:38:01.254Z,0.00
2023-03-13T05:39:01.342Z,0.00
2023-03-13T05:40:01.389Z,0.00
2023-03-13T05:41:01.484Z,0.00
2023-03-13T05:42:01.545Z,0.00
2023-03-13T05:43:01.652Z,0.00
2023-03-13T05:44:01.709Z,0.00
2023-03-13T05:45:01.808Z,0.00
2023-03-13T05:46:01.969Z,0.00
2023-03-13T05:47:04.064Z,0.00
2023-03-13T05:48:02.012Z,0.00
2023-03-13T05:49:02.101Z,0.00
2023-03-13T05:50:02.174Z,0.00
2023-03-13T05:51:02.261Z,0.00
2023-03-13T05:52:02.340Z,0.00
2023-03-13T05:53:02.454Z,0.00
2023-03-13T05:54:02.508Z,0.00
2023-03-13T05:55:02.583Z,5.62
2023-03-13T05:56:02.649Z,5.62
2023-03-13T05:57:02.718Z,5.62
2023-03-13T05:58:02.803Z,5.62
2023-03-13T05:59:02.869Z,11.25
2023-03-13T06:00:02.922Z,11.25
2023-03-13T06:01:03.002Z,11.25
2023-03-13T06:02:03.090Z,16.88
2023-03-13T06:03:03.182Z,11.25
2023-03-13T06:04:03.430Z,16.88
2023-03-13T06:05:03.387Z,16.88
2023-03-13T06:06:03.426Z,16.88
2023-03-13T06:07:03.512Z,16.88
2023-03-13T06:08:03.610Z,16.88
2023-03-13T06:09:03.659Z,22.50
2023-03-13T06:10:03.741Z,16.88
2023-03-13T06:11:03.832Z,22.50
2023-03-13T06:12:03.917Z,16.88
2023-03-13T06:13:18.713Z,22.50
2023-03-13T06:14:04.105Z,33.75
2023-03-13T06:15:04.189Z,45.00
2023-03-13T06:16:04.277Z,50.62
2023-03-13T06:17:04.349Z,61.88
2023-03-13T06:18:04.416Z,73.12
2023-03-13T06:19:04.500Z,84.38
2023-03-13T06:20:04.644Z,90.00
2023-03-13T06:21:04.645Z,95.62
2023-03-13T06:22:04.738Z,101.25
2023-03-13T06:23:04.846Z,112.50
2023-03-13T06:24:04.900Z,123.75
2023-03-13T06:25:04.989Z,135.00
2023-03-13T06:26:05.066Z,146.25
2023-03-13T06:27:05.157Z,163.12
2023-03-13T06:28:05.243Z,168.75
2023-03-13T06:29:05.312Z,168.75
2023-03-13T06:30:05.381Z,163.12
2023-03-13T06:31:05.515Z,135.00
2023-03-13T06:32:05.663Z,123.75
2023-03-13T06:33:05.761Z,90.00
2023-03-13T06:34:05.699Z,90.00
2023-03-13T06:35:05.766Z,78.75
2023-03-13T06:36:05.890Z,73.12
2023-03-13T06:37:06.044Z,56.25
2023-03-13T06:38:06.034Z,45.00
2023-03-13T06:39:06.115Z,39.38
2023-03-13T06:40:06.199Z,39.38
2023-03-13T06:41:06.322Z,33.75
2023-03-13T06:42:06.371Z,39.38
2023-03-13T06:43:06.466Z,39.38
2023-03-13T06:44:06.539Z,39.38
2023-03-13T06:45:06.626Z,33.75
2023-03-13T06:46:06.680Z,39.38
2023-03-13T06:47:06.861Z,39.38
2023-03-13T06:48:06.878Z,33.75
2023-03-13T06:49:06.916Z,28.12
2023-03-13T06:50:06.980Z,28.12
2023-03-13T06:51:07.068Z,28.12
2023-03-13T06:52:07.137Z,28.12
2023-03-13T06:53:07.245Z,33.75
2023-03-13T06:54:07.316Z,33.75
2023-03-13T06:55:07.391Z,39.38
2023-03-13T06:56:07.465Z,33.75
2023-03-13T06:57:07.542Z,39.38
2023-03-13T06:58:07.688Z,39.38
2023-03-13T06:59:07.682Z,39.38
2023-03-13T07:00:07.750Z,39.38
2023-03-13T07:01:07.965Z,45.00
2023-03-13T07:02:07.944Z,45.00
2023-03-13T07:03:08.066Z,50.62
2023-03-13T07:04:08.169Z,39.38
2023-03-13T07:05:08.228Z,33.75
2023-03-13T07:06:08.303Z,33.75
2023-03-13T07:07:08.379Z,39.38
2023-03-13T07:08:08.470Z,33.75
2023-03-13T07:09:08.548Z,33.75
2023-03-13T07:10:08.636Z,33.75
2023-03-13T07:11:08.734Z,33.75
2023-03-13T07:12:08.820Z,33.75
2023-03-13T07:13:10.768Z,33.75
2023-03-13T07:14:17.103Z,33.75
2023-03-13T07:15:09.053Z,39.38
2023-03-13T07:16:09.211Z,33.75
2023-03-13T07:17:09.265Z,33.75
2023-03-13T07:18:09.292Z,33.75
2023-03-13T07:19:09.422Z,39.38
2023-03-13T07:20:09.563Z,45.00
2023-03-13T07:21:09.534Z,45.00
2023-03-13T07:22:09.596Z,39.38
2023-03-13T07:23:09.717Z,39.38
2023-03-13T07:24:09.888Z,39.38
2023-03-13T07:25:09.905Z,45.00
2023-03-13T07:26:09.954Z,45.00
2023-03-13T07:27:10.053Z,39.38
2023-03-13T07:28:10.133Z,45.00
2023-03-13T07:29:10.249Z,39.38
2023-03-13T07:30:10.290Z,45.00
2023-03-13T07:31:10.501Z,45.00
2023-03-13T07:32:10.512Z,45.00
2023-03-13T07:33:10.511Z,45.00
2023-03-13T07:34:10.603Z,56.25
2023-03-13T07:35:10.667Z,56.25
2023-03-13T07:36:10.878Z,67.50
2023-03-13T07:37:10.810Z,78.75
2023-03-13T07:38:10.878Z,95.62
2023-03-13T07:39:10.974Z,112.50
2023-03-13T07:40:11.039Z,112.50
2023-03-13T07:41:11.125Z,101.25
2023-03-13T07:42:11.205Z,135.00
2023-03-13T07:43:11.293Z,196.88
2023-03-13T07:44:11.903Z,219.38
2023-03-13T07:45:12.053Z,213.75
2023-03-13T07:46:11.921Z,202.50
2023-03-13T07:47:11.663Z,196.88
2023-03-13T07:48:11.665Z,196.88
2023-03-13T07:49:12.218Z,196.88
2023-03-13T07:50:12.558Z,180.00
2023-03-13T07:51:12.343Z,135.00
2023-03-13T07:52:11.999Z,129.38
2023-03-13T07:53:14.978Z,140.62
2023-03-13T07:54:12.204Z,163.12
2023-03-13T07:55:12.465Z,168.75
2023-03-13T07:56:12.354Z,157.50
2023-03-13T07:57:12.429Z,157.50
2023-03-13T07:58:12.490Z,157.50
2023-03-13T07:59:12.623Z,157.50
2023-03-13T08:00:12.651Z,168.75
2023-03-13T08:01:12.761Z,191.25
2023-03-13T08:02:12.854Z,225.00
2023-03-13T08:03:12.997Z,241.88
2023-03-13T08:04:13.019Z,253.12
2023-03-13T08:05:13.084Z,253.12
2023-03-13T08:06:13.165Z,236.25
2023-03-13T08:07:13.253Z,219.38
2023-03-13T08:08:13.327Z,202.50
2023-03-13T08:09:13.483Z,163.12
2023-03-13T08:10:13.511Z,118.12
2023-03-13T08:11:13.618Z,101.25
2023-03-13T08:12:13.668Z,95.62
2023-03-13T08:13:13.765Z,101.25
2023-03-13T08:14:14.300Z,106.88
2023-03-13T08:15:13.910Z,118.12
2023-03-13T08:16:14.075Z,129.38
2023-03-13T08:17:14.070Z,129.38
2023-03-13T08:18:14.137Z,123.75
2023-03-13T08:19:14.258Z,118.12
2023-03-13T08:20:14.317Z,112.50
2023-03-13T08:21:14.403Z,106.88
2023-03-13T08:22:14.468Z,106.88
2023-03-13T08:23:14.569Z,95.62
2023-03-13T08:24:14.665Z,84.38
2023-03-13T08:25:14.703Z,73.12
2023-03-13T08:26:14.782Z,78.75
2023-03-13T08:27:14.878Z,78.75
2023-03-13T08:28:14.944Z,78.75
2023-03-13T08:29:15.071Z,78.75
2023-03-13T08:30:15.126Z,73.12
2023-03-13T08:31:15.300Z,61.88
2023-03-13T08:32:15.307Z,56.25
2023-03-13T08:33:15.387Z,56.25
2023-03-13T08:34:15.481Z,61.88
2023-03-13T08:35:15.538Z,67.50
2023-03-13T08:36:15.606Z,73.12
2023-03-13T08:37:15.700Z,73.12
2023-03-13T08:38:15.779Z,78.75
2023-03-13T08:39:15.863Z,78.75
2023-03-13T08:40:15.931Z,78.75
2023-03-13T08:41:16.000Z,78.75
2023-03-13T08:42:16.103Z,73.12
2023-03-13T08:43:16.178Z,78.75
2023-03-13T08:44:16.312Z,90.00
2023-03-13T08:45:16.356Z,95.62
2023-03-13T08:46:18.510Z,106.88
2023-03-13T08:47:16.548Z,151.88
2023-03-13T08:48:16.621Z,151.88
2023-03-13T08:49:16.714Z,163.12
2023-03-13T08:50:16.783Z,151.88
2023-03-13T08:51:16.857Z,168.75
2023-03-13T08:52:16.944Z,151.88
2023-03-13T08:53:17.014Z,123.75
2023-03-13T08:54:17.134Z,129.38
2023-03-13T08:55:17.213Z,151.88
2023-03-13T08:56:17.312Z,157.50
2023-03-13T08:57:17.384Z,151.88
2023-03-13T08:58:17.492Z,140.62
2023-03-13T08:59:17.577Z,135.00
2023-03-13T09:00:17.635Z,129.38
2023-03-13T09:01:17.707Z,135.00
2023-03-13T09:02:17.867Z,174.38
2023-03-13T09:03:17.932Z,225.00
2023-03-13T09:04:18.012Z,213.75
2023-03-13T09:05:18.059Z,174.38
2023-03-13T09:06:18.124Z,168.75
2023-03-13T09:07:18.394Z,174.38
2023-03-13T09:08:18.275Z,196.88
2023-03-13T09:09:18.374Z,208.12
2023-03-13T09:10:18.445Z,241.88
2023-03-13T09:11:18.549Z,275.62
2023-03-13T09:12:30.444Z,331.88
2023-03-13T09:13:18.723Z,405.00
2023-03-13T09:14:18.803Z,388.12
2023-03-13T09:15:18.872Z,331.88
2023-03-13T09:16:18.975Z,236.25
2023-03-13T09:17:19.026Z,202.50
2023-03-13T09:18:19.140Z,213.75
2023-03-13T09:19:19.196Z,208.12
2023-03-13T09:20:19.252Z,219.38
2023-03-13T09:21:19.337Z,202.50
2023-03-13T09:22:19.390Z,219.38
2023-03-13T09:23:19.482Z,270.00
2023-03-13T09:24:19.575Z,258.75
2023-03-13T09:25:19.660Z,202.50
2023-03-13T09:26:22.642Z,174.38
2023-03-13T09:27:19.816Z,191.25
2023-03-13T09:28:19.872Z,219.38
2023-03-13T09:29:19.976Z,264.38
2023-03-13T09:30:20.022Z,286.88
2023-03-13T09:31:20.178Z,230.62
2023-03-13T09:32:20.201Z,225.00
2023-03-13T09:33:20.262Z,208.12
2023-03-13T09:34:20.425Z,202.50
2023-03-13T09:35:20.426Z,191.25
2023-03-13T09:36:22.327Z,191.25
2023-03-13T09:37:20.553Z,191.25
2023-03-13T09:38:20.608Z,168.75
2023-03-13T09:39:20.732Z,157.50
2023-03-13T09:40:20.811Z,157.50
2023-03-13T09:41:20.882Z,151.88
2023-03-13T09:42:20.971Z,140.62
2023-03-13T09:43:21.061Z,135.00
2023-03-13T09:44:21.177Z,151.88
2023-03-13T09:45:21.253Z,146.25
2023-03-13T09:46:21.387Z,157.50
2023-03-13T09:47:21.426Z,202.50
2023-03-13T09:48:21.504Z,202.50
2023-03-13T09:49:21.596Z,163.12
2023-03-13T09:50:21.646Z,180.00
2023-03-13T09:51:21.747Z,225.00
2023-03-13T09:52:21.829Z,213.75
2023-03-13T09:53:21.900Z,202.50
2023-03-13T09:54:22.028Z,196.88
2023-03-13T09:55:22.058Z,174.38
2023-03-13T09:56:22.148Z,135.00
2023-03-13T09:57:22.271Z,118.12
2023-03-13T09:58:22.316Z,135.00
2023-03-13T09:59:22.417Z,151.88
2023-03-13T10:00:22.623Z,185.62
2023-03-13T10:01:22.576Z,230.62
2023-03-13T10:02:22.609Z,202.50
2023-03-13T10:03:22.702Z,196.88
2023-03-13T10:04:22.838Z,196.88
2023-03-13T10:05:22.901Z,225.00
2023-03-13T10:06:23.010Z,236.25
2023-03-13T10:07:23.066Z,202.50
2023-03-13T10:08:23.146Z,163.12
2023-03-13T10:09:23.231Z,140.62
2023-03-13T10:10:23.293Z,135.00
2023-03-13T10:11:23.402Z,151.88
2023-03-13T10:12:23.489Z,146.25
2023-03-13T10:13:23.569Z,163.12
2023-03-13T10:14:23.683Z,185.62
2023-03-13T10:15:23.726Z,185.62
2023-03-13T10:16:23.889Z,208.12
2023-03-13T10:17:23.896Z,230.62
2023-03-13T10:18:23.988Z,185.62
2023-03-13T10:19:24.082Z,202.50
2023-03-13T10:20:24.124Z,163.12
2023-03-13T10:21:24.198Z,129.38
2023-03-13T10:22:24.283Z,129.38
2023-03-13T10:23:24.353Z,129.38
2023-03-13T10:24:24.450Z,140.62
2023-03-13T10:25:24.522Z,174.38
2023-03-13T10:26:24.602Z,180.00
2023-03-13T10:27:24.706Z,180.00
2023-03-13T10:28:24.786Z,191.25
2023-03-13T10:29:24.913Z,196.88
2023-03-13T10:30:24.958Z,185.62
2023-03-13T10:31:25.084Z,230.62
2023-03-13T10:32:25.185Z,303.75
2023-03-13T10:33:25.196Z,320.62
2023-03-13T10:34:25.311Z,326.25
2023-03-13T10:35:25.372Z,253.12
2023-03-13T10:36:25.456Z,219.38
2023-03-13T10:37:25.563Z,208.12
2023-03-13T10:38:25.845Z,196.88
2023-03-13T10:39:25.785Z,202.50
2023-03-13T10:40:25.835Z,247.50
2023-03-13T10:41:25.935Z,225.00
2023-03-13T10:42:26.012Z,196.88
2023-03-13T10:43:26.115Z,213.75
2023-03-13T10:44:26.183Z,185.62
2023-03-13T10:45:26.274Z,219.38
2023-03-13T10:46:26.363Z,253.12
2023-03-13T10:47:26.443Z,303.75
2023-03-13T10:48:26.538Z,236.25
2023-03-13T10:49:26.650Z,208.12
2023-03-13T10:50:26.701Z,230.62
2023-03-13T10:51:26.771Z,247.50
2023-03-13T10:52:26.850Z,247.50
2023-03-13T10:53:26.971Z,275.62
2023-03-13T10:54:27.053Z,236.25
2023-03-13T10:55:27.141Z,168.75
2023-03-13T10:56:27.220Z,208.12
2023-03-13T10:57:27.338Z,303.75
2023-03-13T10:58:27.381Z,315.00
2023-03-13T10:59:27.502Z,309.38
2023-03-13T11:00:27.560Z,315.00
2023-03-13T11:01:27.656Z,320.62
2023-03-13T11:02:27.904Z,303.75
2023-03-13T11:03:28.008Z,309.38
2023-03-13T11:04:27.931Z,309.38
2023-03-13T11:05:27.984Z,376.88
2023-03-13T11:06:28.066Z,506.25
2023-03-13T11:07:28.173Z,731.25
2023-03-13T11:08:28.317Z,601.88
2023-03-13T11:09:28.377Z,511.88
2023-03-13T11:10:28.406Z,579.38
2023-03-13T11:11:28.507Z,635.62
2023-03-13T11:12:28.568Z,545.62
2023-03-13T11:13:36.613Z,466.88
2023-03-13T11:14:28.704Z,528.75
2023-03-13T11:15:28.785Z,613.12
2023-03-13T11:16:29.007Z,568.12
2023-03-13T11:17:28.939Z,511.88
2023-03-13T11:18:29.001Z,466.88
2023-03-13T11:19:29.117Z,635.62
2023-03-13T11:20:29.176Z,753.75
2023-03-13T11:21:29.281Z,663.75
2023-03-13T11:22:29.347Z,585.00
2023-03-13T11:23:29.428Z,663.75
2023-03-13T11:24:29.553Z,680.62
2023-03-13T11:25:29.623Z,630.00
2023-03-13T11:26:29.687Z,500.62
2023-03-13T11:27:29.819Z,613.12
2023-03-13T11:28:29.888Z,579.38
2023-03-13T11:29:30.008Z,506.25
2023-03-13T11:30:30.021Z,630.00
2023-03-13T11:31:30.226Z,680.62
2023-03-13T11:32:30.290Z,652.50
2023-03-13T11:33:30.286Z,675.00
2023-03-13T11:34:30.377Z,613.12
2023-03-13T11:35:30.454Z,562.50
2023-03-13T11:36:30.508Z,545.62
2023-03-13T11:37:30.608Z,652.50
2023-03-13T11:38:30.675Z,540.00
2023-03-13T11:39:30.777Z,613.12
2023-03-13T11:40:30.842Z,607.50
2023-03-13T11:41:31.040Z,551.25
2023-03-13T11:42:31.008Z,635.62
2023-03-13T11:43:31.101Z,562.50
2023-03-13T11:44:31.187Z,663.75
2023-03-13T11:45:31.326Z,596.25
2023-03-13T11:46:31.457Z,573.75
2023-03-13T11:47:31.431Z,534.38
2023-03-13T11:48:31.535Z,652.50
2023-03-13T11:49:31.582Z,630.00
2023-03-13T11:50:31.644Z,630.00
2023-03-13T11:51:31.776Z,601.88
2023-03-13T11:52:31.833Z,635.62
2023-03-13T11:53:31.937Z,590.62
2023-03-13T11:54:32.018Z,601.88
2023-03-13T11:55:32.076Z,641.25
2023-03-13T11:56:32.135Z,765.00
2023-03-13T11:57:32.213Z,630.00
2023-03-13T11:58:32.282Z,601.88
2023-03-13T11:59:32.404Z,658.12
2023-03-13T12:00:32.416Z,573.75
2023-03-13T12:01:32.521Z,450.00
2023-03-13T12:02:32.620Z,444.38
2023-03-13T12:03:32.779Z,568.12
2023-03-13T12:04:32.760Z,748.12
2023-03-13T12:05:32.918Z,748.12
2023-03-13T12:06:32.919Z,686.25
2023-03-13T12:07:33.019Z,596.25
2023-03-13T12:08:33.087Z,556.88
2023-03-13T12:09:33.210Z,568.12
2023-03-13T12:10:33.262Z,613.12
2023-03-13T12:11:33.346Z,675.00
2023-03-13T12:12:33.419Z,658.12
2023-03-13T12:13:33.502Z,601.88
2023-03-13T12:14:33.582Z,596.25
2023-03-13T12:15:33.665Z,590.62
2023-03-13T12:16:33.784Z,613.12
2023-03-13T12:17:33.889Z,635.62
2023-03-13T12:18:33.910Z,585.00
2023-03-13T12:19:34.035Z,579.38
2023-03-13T12:20:34.062Z,590.62
2023-03-13T12:21:34.170Z,523.12
2023-03-13T12:22:34.222Z,551.25
2023-03-13T12:23:34.353Z,624.38
2023-03-13T12:24:34.434Z,568.12
2023-03-13T12:25:34.550Z,466.88
2023-03-13T12:26:34.586Z,466.88
2023-03-13T12:27:34.670Z,416.25
2023-03-13T12:28:34.883Z,410.62
2023-03-13T12:29:34.849Z,427.50
2023-03-13T12:30:34.929Z,382.50
2023-03-13T12:31:34.980Z,343.12
2023-03-13T12:32:35.093Z,337.50
2023-03-13T12:33:35.157Z,320.62
2023-03-13T12:34:35.240Z,258.75
2023-03-13T12:35:35.320Z,225.00
2023-03-13T12:36:35.370Z,247.50
2023-03-13T12:37:35.449Z,320.62
2023-03-13T12:38:35.519Z,393.75
2023-03-13T12:39:35.671Z,472.50
2023-03-13T12:40:35.689Z,489.38
2023-03-13T12:41:35.769Z,528.75
2023-03-13T12:42:35.847Z,534.38
2023-03-13T12:43:35.939Z,607.50
2023-03-13T12:44:36.024Z,618.75
2023-03-13T12:45:36.140Z,613.12
2023-03-13T12:46:36.278Z,618.75
2023-03-13T12:47:36.242Z,596.25
2023-03-13T12:48:36.303Z,601.88
2023-03-13T12:49:36.430Z,579.38
2023-03-13T12:50:36.466Z,528.75
2023-03-13T12:51:36.545Z,438.75
2023-03-13T12:52:36.627Z,433.12
2023-03-13T12:53:36.725Z,534.38
2023-03-13T12:54:36.825Z,585.00
2023-03-13T12:55:36.857Z,511.88